Time;durP1;ratioP1;P1;durP2;ratioP2;P2;SDS_P1;SDS_P2;PMS_P1;PMS_P2;Temp;Humidity;BMP_temperature;BMP_pressure;BME280_temperature;BME280_humidity;BME280_pressure;Samples;Min_cycle;Max_cycle;Signal;HPM_P1;HPM_P2
2022/03/04 00:00:41;;;;;;;35.05;32.25;;;0.80;70.60;;;;;;5091833;28;20211;-71
2022/03/04 00:03:09;;;;;;;34.45;31.75;;;0.80;70.60;;;;;;5094020;28;20627;-71
2022/03/04 00:05:36;;;;;;;35.67;32.75;;;0.80;70.40;;;;;;5096052;28;20610;-71
2022/03/04 00:08:03;;;;;;;35.00;32.28;;;0.90;70.00;;;;;;5095545;28;20197;-70
2022/03/04 00:10:31;;;;;;;34.92;31.90;;;0.90;69.90;;;;;;5095420;28;20203;-71
2022/03/04 00:12:58;;;;;;;36.08;33.38;;;0.80;70.30;;;;;;5095566;28;20220;-71
2022/03/04 00:15:25;;;;;;;35.20;32.40;;;0.70;70.60;;;;;;5095497;28;20815;-71
2022/03/04 00:17:53;;;;;;;35.10;32.50;;;0.70;70.80;;;;;;5095495;28;20208;-71
2022/03/04 00:20:20;;;;;;;33.95;31.40;;;0.70;71.10;;;;;;5095273;28;20643;-71
2022/03/04 00:22:48;;;;;;;35.30;32.45;;;0.70;71.10;;;;;;5095521;28;20219;-71
2022/03/04 00:25:15;;;;;;;36.28;33.28;;;0.60;71.20;;;;;;5095443;28;20193;-71
2022/03/04 00:27:42;;;;;;;35.22;32.38;;;0.60;71.20;;;;;;5095417;28;20573;-71
2022/03/04 00:30:10;;;;;;;34.22;31.38;;;0.60;71.70;;;;;;5095158;28;20220;-70
2022/03/04 00:32:37;;;;;;;34.67;31.88;;;0.50;71.50;;;;;;5095337;28;20223;-71
2022/03/04 00:35:09;;;;;;;35.65;32.85;;;0.60;71.20;;;;;;5095436;28;20250;-71
2022/03/04 00:37:36;;;;;;;35.28;32.53;;;0.60;70.90;;;;;;5095265;28;20201;-71
2022/03/04 00:40:04;;;;;;;36.25;33.10;;;0.50;71.00;;;;;;5095242;28;20563;-71
2022/03/04 00:42:30;;;;;;;33.60;30.85;;;0.60;71.00;;;;;;5095081;28;20251;-71
2022/03/04 00:44:57;;;;;;;35.22;32.53;;;0.50;71.20;;;;;;5095204;28;20201;-70
2022/03/04 00:47:24;;;;;;;35.65;32.60;;;0.40;71.60;;;;;;5095346;28;20297;-71
2022/03/04 00:49:51;;;;;;;34.40;31.75;;;0.40;72.10;;;;;;5094791;28;20305;-70
2022/03/04 00:52:20;;;;;;;34.28;31.63;;;0.30;72.20;;;;;;5094974;28;20694;-71
2022/03/04 00:54:46;;;;;;;35.25;32.65;;;0.30;72.40;;;;;;5094754;28;20566;-70
2022/03/04 00:57:13;;;;;;;35.42;32.67;;;0.20;72.50;;;;;;5095112;28;20617;-71
2022/03/04 00:59:40;;;;;;;34.95;32.22;;;0.20;72.60;;;;;;5094529;28;20214;-71
2022/03/04 01:02:07;;;;;;;34.28;31.55;;;0.30;72.40;;;;;;5094637;28;20217;-71
2022/03/04 01:04:34;;;;;;;36.47;33.50;;;0.30;72.20;;;;;;5094662;28;20573;-71
2022/03/04 01:07:01;;;;;;;35.38;32.42;;;0.30;72.20;;;;;;5094652;28;20288;-71
2022/03/04 01:09:29;;;;;;;34.90;32.35;;;0.40;71.80;;;;;;5094116;28;20224;-71
2022/03/04 01:11:56;;;;;;;35.42;32.58;;;0.40;71.10;;;;;;5094532;28;20316;-71
2022/03/04 01:14:23;;;;;;;36.20;33.20;;;0.40;71.40;;;;;;5093290;28;20725;-71
2022/03/04 01:16:50;;;;;;;35.92;32.92;;;0.30;71.70;;;;;;5094264;28;20212;-71
2022/03/04 01:19:17;;;;;;;35.70;32.85;;;0.20;72.20;;;;;;5094254;28;20197;-70
2022/03/04 01:21:44;;;;;;;35.10;32.10;;;0.10;73.40;;;;;;5094418;28;20218;-71
2022/03/04 01:24:11;;;;;;;35.00;32.25;;;0.20;73.00;;;;;;5094378;28;20201;-70
2022/03/04 01:26:39;;;;;;;35.60;32.75;;;0.10;72.80;;;;;;5094250;28;20197;-71
2022/03/04 01:29:06;;;;;;;34.65;31.95;;;0.10;72.70;;;;;;5094091;28;20334;-71
2022/03/04 01:31:33;;;;;;;34.70;31.90;;;0.10;72.70;;;;;;5094153;28;20217;-71
2022/03/04 01:34:00;;;;;;;34.47;31.88;;;0.10;72.70;;;;;;5094077;28;20207;-71
2022/03/04 01:36:32;;;;;;;36.00;33.15;;;0.20;72.70;;;;;;5093906;28;20201;-71
2022/03/04 01:38:59;;;;;;;34.40;31.75;;;0.10;72.60;;;;;;5093971;28;20228;-71
2022/03/04 01:41:26;;;;;;;34.03;31.52;;;0.10;72.80;;;;;;5093927;28;20308;-71
2022/03/04 01:43:54;;;;;;;36.65;33.83;;;0.10;72.80;;;;;;5093804;28;20744;-71
2022/03/04 01:46:28;;;;;;;34.67;31.98;;;0.10;72.90;;;;;;5093896;28;20566;-71
2022/03/04 01:48:55;;;;;;;34.80;32.00;;;0.00;73.30;;;;;;5093653;28;20304;-71
2022/03/04 01:51:22;;;;;;;36.20;33.30;;;-0.10;74.00;;;;;;5093471;28;20217;-71
2022/03/04 01:53:49;;;;;;;35.17;32.42;;;-0.10;74.70;;;;;;5093622;28;20293;-71
2022/03/04 01:56:16;;;;;;;35.35;32.55;;;-0.10;75.70;;;;;;5093624;28;20192;-71
2022/03/04 01:58:43;;;;;;;35.47;32.78;;;-0.10;75.10;;;;;;5093501;28;20240;-71
2022/03/04 02:01:11;;;;;;;35.03;32.22;;;-0.10;74.60;;;;;;5093294;28;20238;-70
2022/03/04 02:03:38;;;;;;;35.88;33.08;;;-0.20;75.90;;;;;;5093569;28;20198;-71
2022/03/04 02:06:05;;;;;;;36.22;33.03;;;-0.20;76.10;;;;;;5093450;28;20205;-71
2022/03/04 02:08:32;;;;;;;34.17;31.40;;;-0.20;75.30;;;;;;5093288;28;20752;-70
2022/03/04 02:10:59;;;;;;;36.08;33.00;;;-0.20;74.70;;;;;;5093062;28;20202;-71
2022/03/04 02:13:26;;;;;;;35.20;32.42;;;-0.20;75.70;;;;;;5093265;28;20561;-71
2022/03/04 02:15:53;;;;;;;34.28;31.65;;;-0.20;74.80;;;;;;5093226;28;20750;-71
2022/03/04 02:18:21;;;;;;;35.40;32.63;;;-0.20;74.60;;;;;;5093136;28;20284;-71
2022/03/04 02:20:50;;;;;;;35.75;32.75;;;-0.10;74.00;;;;;;5092913;28;20228;-71
2022/03/04 02:23:19;;;;;;;36.08;33.13;;;-0.10;73.70;;;;;;5093294;28;20226;-71
2022/03/04 02:25:50;;;;;;;36.20;33.20;;;-0.10;73.60;;;;;;5092752;28;20603;-71
2022/03/04 02:28:18;;;;;;;36.75;33.72;;;-0.20;74.00;;;;;;5093316;28;20198;-71
2022/03/04 02:30:45;;;;;;;36.50;33.70;;;-0.20;78.20;;;;;;5092637;28;20294;-71
2022/03/04 02:33:12;;;;;;;36.58;33.63;;;-0.20;75.90;;;;;;5093163;28;20200;-71
2022/03/04 02:35:41;;;;;;;35.92;33.22;;;-0.30;74.80;;;;;;5093064;28;20689;-71
2022/03/04 02:38:08;;;;;;;37.00;33.90;;;-0.30;74.60;;;;;;5092824;28;20295;-71
2022/03/04 02:40:36;;;;;;;35.67;32.88;;;-0.30;74.40;;;;;;5092826;28;20192;-70
2022/03/04 02:43:04;;;;;;;36.72;33.80;;;-0.30;74.30;;;;;;5092668;28;20309;-71
2022/03/04 02:45:32;;;;;;;34.75;31.77;;;-0.30;74.50;;;;;;5092778;28;20679;-71
2022/03/04 02:47:59;;;;;;;37.13;34.13;;;-0.40;74.70;;;;;;5092879;28;20201;-71
2022/03/04 02:50:26;;;;;;;37.42;34.15;;;-0.50;75.80;;;;;;5092495;28;20251;-71
2022/03/04 02:52:53;;;;;;;37.38;34.28;;;-0.50;81.00;;;;;;5092665;28;20300;-71
2022/03/04 02:55:20;;;;;;;36.53;33.63;;;-0.50;78.10;;;;;;5092651;28;20203;-71
2022/03/04 02:57:48;;;;;;;36.85;33.72;;;-0.50;76.50;;;;;;5092470;28;20692;-71
2022/03/04 03:00:17;;;;;;;36.80;33.88;;;-0.50;76.00;;;;;;5092368;28;20293;-71
2022/03/04 03:02:45;;;;;;;36.97;33.78;;;-0.50;76.00;;;;;;5092624;28;20217;-70
2022/03/04 03:05:12;;;;;;;35.90;32.80;;;-0.50;75.80;;;;;;5092579;28;20200;-71
2022/03/04 03:07:40;;;;;;;35.80;32.80;;;-0.60;76.00;;;;;;5092655;28;20208;-71
2022/03/04 03:10:08;;;;;;;37.28;34.08;;;-0.60;76.00;;;;;;5092195;28;20459;-71
2022/03/04 03:12:34;;;;;;;36.20;33.10;;;-0.60;76.00;;;;;;5092450;28;20228;-71
2022/03/04 03:15:03;;;;;;;35.28;32.58;;;-0.60;75.90;;;;;;5092487;28;20661;-71
2022/03/04 03:17:30;;;;;;;37.15;34.20;;;-0.70;76.20;;;;;;5092380;28;20200;-71
2022/03/04 03:19:57;;;;;;;37.88;34.78;;;-0.70;76.40;;;;;;5092303;28;20202;-71
2022/03/04 03:22:23;;;;;;;37.53;34.53;;;-0.70;76.40;;;;;;5092348;28;20217;-71
2022/03/04 03:24:50;;;;;;;37.20;34.30;;;-0.70;76.10;;;;;;5092325;28;20197;-71
2022/03/04 03:27:17;;;;;;;37.70;34.70;;;-0.70;76.10;;;;;;5092272;28;20201;-71
2022/03/04 03:29:44;;;;;;;38.40;34.80;;;-0.80;76.60;;;;;;5092136;28;20223;-71
2022/03/04 03:32:13;;;;;;;37.10;33.97;;;-0.80;77.10;;;;;;5092419;28;20240;-71
2022/03/04 03:34:41;;;;;;;37.60;34.58;;;-0.80;77.20;;;;;;5092316;28;20287;-71
2022/03/04 03:37:09;;;;;;;36.53;33.72;;;-0.80;76.80;;;;;;5092454;28;20248;-71
2022/03/04 03:39:36;;;;;;;37.72;34.78;;;-0.80;76.60;;;;;;5096045;28;20227;-71
2022/03/04 03:42:04;;;;;;;37.83;34.67;;;-0.80;76.60;;;;;;5096051;28;20697;-71
2022/03/04 03:44:31;;;;;;;37.97;34.60;;;-0.80;76.60;;;;;;5096146;28;20193;-70
2022/03/04 03:46:58;;;;;;;36.75;33.60;;;-0.90;76.70;;;;;;5096290;28;20201;-71
2022/03/04 03:49:27;;;;;;;38.25;35.08;;;-0.90;76.90;;;;;;5095844;28;20221;-71
2022/03/04 03:51:53;;;;;;;36.78;33.83;;;-0.90;76.80;;;;;;5096107;28;20216;-71
2022/03/04 03:54:20;;;;;;;37.25;34.38;;;-0.80;76.40;;;;;;5095992;28;20205;-71
2022/03/04 03:56:47;;;;;;;37.60;34.65;;;-0.70;75.90;;;;;;5095982;28;20307;-71
2022/03/04 03:59:17;;;;;;;38.00;34.90;;;-0.80;75.90;;;;;;5095575;28;20669;-71
2022/03/04 04:01:44;;;;;;;38.40;35.05;;;-0.90;76.20;;;;;;5095843;28;20216;-71
2022/03/04 04:04:12;;;;;;;36.83;33.83;;;-0.80;76.40;;;;;;5095734;28;20666;-71
2022/03/04 04:06:41;;;;;;;40.97;37.58;;;-0.90;78.00;;;;;;5095781;28;20203;-70
2022/03/04 04:09:08;;;;;;;39.67;36.13;;;-0.90;81.80;;;;;;5095724;28;20623;-71
2022/03/04 04:11:36;;;;;;;37.72;34.75;;;-0.90;79.40;;;;;;5095963;28;20300;-70
2022/03/04 04:14:03;;;;;;;37.90;34.80;;;-0.90;78.30;;;;;;5095626;28;20197;-71
2022/03/04 04:16:30;;;;;;;40.15;36.63;;;-0.90;77.80;;;;;;5095603;28;20203;-71
2022/03/04 04:18:57;;;;;;;37.92;35.10;;;-0.90;77.20;;;;;;5095500;28;20289;-71
2022/03/04 04:21:25;;;;;;;40.47;37.03;;;-0.90;77.00;;;;;;5095302;28;20212;-70
2022/03/04 04:23:53;;;;;;;37.95;34.85;;;-0.90;77.10;;;;;;5095322;28;20559;-71
2022/03/04 04:26:20;;;;;;;39.08;35.78;;;-1.00;77.50;;;;;;5095545;28;20284;-71
2022/03/04 04:28:47;;;;;;;38.55;35.30;;;-0.90;77.00;;;;;;5095269;28;20718;-71
2022/03/04 04:31:14;;;;;;;38.50;35.22;;;-0.90;76.90;;;;;;5095116;28;20590;-71
2022/03/04 04:33:41;;;;;;;40.60;37.08;;;-1.00;77.40;;;;;;5095227;28;20228;-71
2022/03/04 04:36:08;;;;;;;39.83;36.40;;;-1.10;77.40;;;;;;5095169;28;20274;-70
2022/03/04 04:38:36;;;;;;;38.25;34.75;;;-1.10;77.60;;;;;;5094900;28;20294;-71
2022/03/04 04:41:06;;;;;;;39.38;36.08;;;-1.10;77.40;;;;;;5094906;28;20694;-71
2022/03/04 04:43:33;;;;;;;38.00;34.70;;;-1.10;77.40;;;;;;5095033;28;20535;-71
2022/03/04 04:46:00;;;;;;;41.50;38.13;;;-1.10;77.40;;;;;;5094971;28;20197;-71
2022/03/04 04:48:27;;;;;;;39.20;35.75;;;-1.20;77.70;;;;;;5094688;28;20248;-71
2022/03/04 04:50:54;;;;;;;41.13;37.63;;;-1.20;77.60;;;;;;5094724;28;20223;-71
2022/03/04 04:53:20;;;;;;;41.63;38.33;;;-1.10;77.50;;;;;;5095044;28;20231;-71
2022/03/04 04:55:47;;;;;;;41.95;38.35;;;-1.10;77.60;;;;;;5094939;28;20623;-71
2022/03/04 04:58:16;;;;;;;42.33;38.60;;;-1.10;77.30;;;;;;5094700;28;20565;-71
2022/03/04 05:00:42;;;;;;;41.15;37.25;;;-1.10;77.30;;;;;;5094414;28;20627;-71
2022/03/04 05:03:09;;;;;;;41.08;37.38;;;-1.20;78.20;;;;;;5094798;28;20236;-71
2022/03/04 05:05:36;;;;;;;40.15;36.65;;;-1.20;79.40;;;;;;5094607;28;20200;-70
2022/03/04 05:08:04;;;;;;;38.53;35.22;;;-1.30;81.40;;;;;;5094636;28;20202;-71
2022/03/04 05:10:31;;;;;;;40.05;36.90;;;-1.30;79.90;;;;;;5094316;28;20213;-71
2022/03/04 05:12:58;;;;;;;41.15;37.85;;;-1.20;79.10;;;;;;5094661;28;20307;-71
2022/03/04 05:15:26;;;;;;;40.80;37.60;;;-1.20;78.20;;;;;;5094501;28;20543;-70
2022/03/04 05:17:53;;;;;;;42.05;38.40;;;-1.20;78.20;;;;;;5094486;28;20207;-70
2022/03/04 05:20:20;;;;;;;40.33;36.70;;;-1.30;78.10;;;;;;5094327;28;20288;-71
2022/03/04 05:22:47;;;;;;;41.17;37.78;;;-1.30;78.70;;;;;;5094284;28;20776;-70
2022/03/04 05:25:14;;;;;;;40.15;36.85;;;-1.30;78.90;;;;;;5094367;28;20196;-70
2022/03/04 05:27:41;;;;;;;41.15;37.50;;;-1.30;79.00;;;;;;5094190;28;20688;-71
2022/03/04 05:30:09;;;;;;;40.15;36.85;;;-1.30;78.80;;;;;;5093771;28;20225;-71
2022/03/04 05:32:37;;;;;;;42.22;38.60;;;-1.20;78.50;;;;;;5094082;28;20308;-71
2022/03/04 05:35:05;;;;;;;40.38;36.97;;;-1.20;77.70;;;;;;5094165;28;20193;-70
2022/03/04 05:37:32;;;;;;;40.75;37.20;;;-1.30;77.90;;;;;;5094093;28;20208;-70
2022/03/04 05:40:00;;;;;;;39.67;36.47;;;-1.30;78.20;;;;;;5093814;28;20196;-71
2022/03/04 05:42:27;;;;;;;42.28;38.75;;;-1.30;78.50;;;;;;5093610;28;20227;-70
2022/03/04 05:44:54;;;;;;;40.20;36.90;;;-1.30;78.60;;;;;;5093794;28;20296;-70
2022/03/04 05:47:20;;;;;;;42.75;38.80;;;-1.30;78.20;;;;;;5093932;28;20207;-71
2022/03/04 05:49:49;;;;;;;43.17;39.88;;;-1.30;78.10;;;;;;5093579;28;20232;-70
2022/03/04 05:52:16;;;;;;;42.13;38.83;;;-1.30;78.10;;;;;;5093683;28;20304;-71
2022/03/04 05:54:43;;;;;;;39.05;35.65;;;-1.30;78.20;;;;;;5093553;28;20211;-71
2022/03/04 05:57:10;;;;;;;41.45;37.83;;;-1.40;78.50;;;;;;5093621;28;20291;-71
2022/03/04 05:59:37;;;;;;;40.25;36.83;;;-1.40;78.70;;;;;;5092993;28;20236;-71
2022/03/04 06:02:05;;;;;;;43.63;39.83;;;-1.50;79.00;;;;;;5093210;28;20239;-71
2022/03/04 06:04:32;;;;;;;41.00;37.25;;;-1.60;79.50;;;;;;5093421;28;20200;-71
2022/03/04 06:07:00;;;;;;;41.90;38.50;;;-1.50;79.70;;;;;;5093602;28;20196;-70
2022/03/04 06:09:28;;;;;;;41.90;38.17;;;-1.50;79.20;;;;;;5093248;28;20200;-71
2022/03/04 06:11:56;;;;;;;40.47;37.13;;;-1.40;79.00;;;;;;5093399;28;20220;-70
2022/03/04 06:14:23;;;;;;;42.58;38.75;;;-1.40;78.70;;;;;;5093329;28;20662;-70
2022/03/04 06:16:49;;;;;;;42.13;38.38;;;-1.40;78.70;;;;;;5093452;28;20283;-70
2022/03/04 06:19:16;;;;;;;40.67;37.30;;;-1.40;78.70;;;;;;5093131;28;20201;-70
2022/03/04 06:21:43;;;;;;;40.30;36.75;;;-1.40;78.80;;;;;;5093077;28;20217;-71
2022/03/04 06:24:11;;;;;;;44.75;40.92;;;-1.30;78.60;;;;;;5093322;28;20200;-71
2022/03/04 06:26:38;;;;;;;41.17;37.67;;;-1.20;78.40;;;;;;5093258;28;20289;-71
2022/03/04 06:29:05;;;;;;;41.10;37.92;;;-1.10;77.80;;;;;;5093025;28;20206;-71
2022/03/04 06:31:32;;;;;;;40.30;36.80;;;-1.10;77.50;;;;;;5092747;28;20223;-71
2022/03/04 06:33:59;;;;;;;41.75;38.05;;;-1.10;77.70;;;;;;5092945;28;20210;-71
2022/03/04 06:36:26;;;;;;;40.95;37.47;;;-1.10;77.70;;;;;;5092927;28;20284;-71
2022/03/04 06:38:53;;;;;;;43.75;40.05;;;-1.10;77.90;;;;;;5092533;28;20285;-71
2022/03/04 06:41:21;;;;;;;45.17;40.63;;;-1.10;77.70;;;;;;5092792;28;20578;-71
2022/03/04 06:43:49;;;;;;;41.17;37.78;;;-1.10;78.80;;;;;;5092827;28;20212;-71
2022/03/04 06:46:16;;;;;;;43.70;40.10;;;-1.10;80.20;;;;;;5092983;28;20205;-70
2022/03/04 06:48:43;;;;;;;43.05;39.55;;;-1.00;78.80;;;;;;5092677;28;20197;-71
2022/03/04 06:51:10;;;;;;;41.05;37.78;;;-0.90;78.10;;;;;;5092384;28;20235;-71
2022/03/04 06:53:37;;;;;;;40.17;36.40;;;-0.80;77.30;;;;;;5092842;28;20254;-70
2022/03/04 06:56:05;;;;;;;43.00;39.05;;;-0.90;76.90;;;;;;5092726;28;20225;-71
2022/03/04 06:58:34;;;;;;;42.78;38.78;;;-0.90;76.90;;;;;;5092470;28;20562;-71
2022/03/04 07:01:02;;;;;;;43.97;39.80;;;-0.90;77.10;;;;;;5092483;28;20224;-71
2022/03/04 07:03:29;;;;;;;43.65;40.03;;;-0.90;77.40;;;;;;5092794;28;20231;-71
2022/03/04 07:05:56;;;;;;;41.88;38.40;;;-0.80;77.20;;;;;;5092793;28;20196;-70
2022/03/04 07:08:23;;;;;;;42.83;39.03;;;-0.80;77.10;;;;;;5092731;28;20666;-70
2022/03/04 07:10:49;;;;;;;42.08;38.55;;;-0.70;77.00;;;;;;5092118;28;20303;-71
2022/03/04 07:13:19;;;;;;;44.97;41.15;;;-0.60;77.00;;;;;;5096868;28;20203;-70
2022/03/04 07:15:47;;;;;;;41.42;37.63;;;-0.60;77.00;;;;;;5096745;28;20287;-71
2022/03/04 07:18:15;;;;;;;42.63;38.72;;;-0.50;77.10;;;;;;5096630;28;20672;-71
2022/03/04 07:20:42;;;;;;;45.35;41.45;;;-0.40;76.90;;;;;;5096341;28;20232;-71
2022/03/04 07:23:14;;;;;;;42.90;38.85;;;-0.40;76.90;;;;;;5096873;28;20197;-71
2022/03/04 07:25:40;;;;;;;43.95;40.03;;;-0.30;76.70;;;;;;5096619;28;20202;-71
2022/03/04 07:28:08;;;;;;;42.33;38.80;;;-0.10;76.30;;;;;;5096581;28;20198;-71
2022/03/04 07:30:35;;;;;;;44.63;40.72;;;-0.10;76.00;;;;;;5096211;28;20218;-71
2022/03/04 07:33:03;;;;;;;45.70;41.90;;;0.00;75.80;;;;;;5096451;28;20248;-71
2022/03/04 07:35:30;;;;;;;42.00;38.38;;;0.10;75.70;;;;;;5096384;28;20198;-71
2022/03/04 07:37:57;;;;;;;41.40;37.80;;;0.20;75.60;;;;;;5096106;28;20205;-71
2022/03/04 07:40:24;;;;;;;43.58;39.67;;;0.20;75.40;;;;;;5096189;28;20697;-71
2022/03/04 07:42:51;;;;;;;44.13;40.42;;;0.30;75.30;;;;;;5095889;28;20300;-71
2022/03/04 07:45:18;;;;;;;43.25;39.63;;;0.50;75.10;;;;;;5096003;28;20315;-71
2022/03/04 07:47:45;;;;;;;43.75;39.53;;;0.60;74.50;;;;;;5096054;28;20754;-71
2022/03/04 07:50:15;;;;;;;43.42;39.35;;;0.70;74.30;;;;;;5095846;28;20193;-71
2022/03/04 07:52:43;;;;;;;44.20;40.45;;;0.80;74.00;;;;;;5095957;28;20875;-71
2022/03/04 07:55:13;;;;;;;41.78;38.15;;;1.00;73.70;;;;;;5095873;28;20289;-71
2022/03/04 07:57:40;;;;;;;41.22;37.60;;;1.10;73.30;;;;;;5095724;28;20208;-71
2022/03/04 08:00:10;;;;;;;44.35;40.35;;;1.20;73.20;;;;;;5095548;28;20244;-71
2022/03/04 08:02:37;;;;;;;43.53;39.75;;;1.30;72.50;;;;;;5095793;28;20267;-71
2022/03/04 08:05:04;;;;;;;44.70;40.65;;;1.50;71.90;;;;;;5095770;28;20208;-71
2022/03/04 08:07:33;;;;;;;43.60;39.85;;;1.60;71.60;;;;;;5095729;28;20224;-71
2022/03/04 08:10:00;;;;;;;46.90;40.72;;;1.70;71.00;;;;;;5095709;28;20202;-71
2022/03/04 08:12:27;;;;;;;42.53;38.90;;;1.90;70.70;;;;;;5095427;28;20226;-71
2022/03/04 08:14:54;;;;;;;43.92;39.63;;;2.00;69.60;;;;;;5095523;28;20195;-71
2022/03/04 08:17:21;;;;;;;43.83;40.28;;;2.10;69.10;;;;;;5095729;28;20200;-71
2022/03/04 08:19:48;;;;;;;42.17;38.47;;;2.20;68.80;;;;;;5095384;28;20199;-71
2022/03/04 08:22:15;;;;;;;40.95;37.45;;;2.30;68.30;;;;;;5095467;28;20209;-71
2022/03/04 08:24:43;;;;;;;41.55;37.88;;;2.40;67.70;;;;;;5094752;28;20196;-71
2022/03/04 08:27:10;;;;;;;43.50;39.60;;;2.40;67.40;;;;;;5095138;28;20211;-71
2022/03/04 08:29:37;;;;;;;42.70;38.92;;;2.50;67.40;;;;;;5095175;28;20282;-71
2022/03/04 08:32:04;;;;;;;42.20;38.33;;;2.60;66.70;;;;;;5095191;28;20233;-71
2022/03/04 08:34:31;;;;;;;42.58;38.88;;;2.70;66.40;;;;;;5095269;28;20202;-71
2022/03/04 08:36:58;;;;;;;42.67;39.03;;;2.80;67.70;;;;;;5095067;28;20199;-71
2022/03/04 08:39:25;;;;;;;42.75;38.75;;;3.00;66.50;;;;;;5094947;28;20292;-71
2022/03/04 08:41:53;;;;;;;43.50;39.85;;;3.10;65.60;;;;;;5095189;28;20208;-71
2022/03/04 08:44:20;;;;;;;44.30;40.65;;;3.10;64.90;;;;;;5094800;28;20642;-71
2022/03/04 08:46:48;;;;;;;42.30;38.38;;;3.10;64.40;;;;;;5095060;28;20202;-71
2022/03/04 08:49:17;;;;;;;43.60;39.90;;;3.30;64.30;;;;;;5094818;28;20288;-71
2022/03/04 08:51:44;;;;;;;43.15;39.30;;;3.40;63.80;;;;;;5094871;28;20217;-71
2022/03/04 08:54:10;;;;;;;45.65;41.20;;;3.50;63.10;;;;;;5094781;28;20304;-71
2022/03/04 08:56:37;;;;;;;42.80;38.90;;;3.40;62.50;;;;;;5094879;28;20317;-71
2022/03/04 08:59:06;;;;;;;45.28;41.28;;;3.50;62.00;;;;;;5094585;28;20208;-72
2022/03/04 09:01:33;;;;;;;43.72;39.63;;;3.60;61.80;;;;;;5094602;28;20306;-71
2022/03/04 09:03:59;;;;;;;45.60;41.35;;;3.70;61.50;;;;;;5094681;28;20204;-71
2022/03/04 09:06:26;;;;;;;45.92;42.00;;;3.80;61.10;;;;;;5094556;28;20208;-71
2022/03/04 09:08:53;;;;;;;45.75;41.75;;;3.70;61.10;;;;;;5094611;28;20193;-71
2022/03/04 09:11:21;;;;;;;44.95;40.70;;;3.50;61.30;;;;;;5094263;28;20226;-71
2022/03/04 09:13:48;;;;;;;43.50;39.50;;;3.60;61.50;;;;;;5094572;28;20204;-71
2022/03/04 09:16:17;;;;;;;45.28;40.88;;;3.70;61.20;;;;;;5094440;28;20196;-71
2022/03/04 09:18:44;;;;;;;44.88;40.40;;;3.90;60.40;;;;;;5094403;28;20197;-71
2022/03/04 09:21:11;;;;;;;44.33;40.42;;;3.90;60.40;;;;;;5094027;28;20213;-71
2022/03/04 09:23:38;;;;;;;43.90;39.70;;;4.00;60.20;;;;;;5094356;28;20231;-71
2022/03/04 09:26:05;;;;;;;44.53;40.42;;;4.20;59.10;;;;;;5094151;28;20259;-71
2022/03/04 09:28:31;;;;;;;42.35;38.65;;;4.30;59.30;;;;;;5094142;28;20197;-71
2022/03/04 09:30:58;;;;;;;45.22;40.58;;;4.40;59.00;;;;;;5093872;28;20760;-71
2022/03/04 09:33:27;;;;;;;45.05;40.92;;;4.30;59.00;;;;;;5094110;28;20203;-71
2022/03/04 09:35:54;;;;;;;44.35;40.00;;;4.30;59.20;;;;;;5092889;28;20280;-71
2022/03/04 09:38:21;;;;;;;45.45;41.00;;;4.50;58.30;;;;;;5093732;28;20208;-71
2022/03/04 09:40:49;;;;;;;44.40;40.60;;;4.60;57.50;;;;;;5093675;28;20284;-71
2022/03/04 09:43:18;;;;;;;47.05;42.75;;;4.60;57.70;;;;;;5093720;28;20204;-71
2022/03/04 09:45:47;;;;;;;44.40;40.53;;;4.80;56.90;;;;;;5093709;28;20247;-71
2022/03/04 09:48:15;;;;;;;46.80;42.40;;;4.80;57.00;;;;;;5093706;28;20730;-71
2022/03/04 09:50:46;;;;;;;43.72;39.83;;;4.90;56.80;;;;;;5093627;28;20288;-71
2022/03/04 09:53:13;;;;;;;44.53;40.38;;;4.90;56.80;;;;;;5093729;28;20307;-71
2022/03/04 09:55:42;;;;;;;47.10;42.85;;;4.90;56.90;;;;;;5093626;28;20201;-71
2022/03/04 09:58:12;;;;;;;46.90;42.47;;;5.00;56.70;;;;;;5093583;28;20207;-71
2022/03/04 10:00:39;;;;;;;45.03;40.92;;;5.10;56.40;;;;;;5093381;28;20291;-71
2022/03/04 10:03:06;;;;;;;45.72;41.72;;;5.10;56.50;;;;;;5093487;28;20201;-71
2022/03/04 10:05:33;;;;;;;46.25;42.05;;;5.20;56.00;;;;;;5093631;28;20192;-71
2022/03/04 10:08:01;;;;;;;43.90;39.90;;;5.20;55.60;;;;;;5093563;28;20300;-71
2022/03/04 10:10:28;;;;;;;45.08;41.10;;;5.30;55.40;;;;;;5093256;28;20379;-71
2022/03/04 10:12:58;;;;;;;44.47;40.25;;;5.40;54.90;;;;;;5093273;28;20226;-71
2022/03/04 10:15:26;;;;;;;45.33;41.40;;;5.40;54.80;;;;;;5093300;28;20197;-71
2022/03/04 10:18:01;;;;;;;46.75;42.50;;;5.50;54.50;;;;;;5093206;28;20204;-71
2022/03/04 10:20:40;;;;;;;42.88;39.03;;;5.60;54.60;;;;;;5093084;28;20196;-71
2022/03/04 10:23:13;;;;;;;43.47;39.67;;;5.80;53.70;;;;;;5093255;28;20733;-71
2022/03/04 10:25:44;;;;;;;47.00;42.63;;;5.80;53.30;;;;;;5093257;28;20205;-71
2022/03/04 10:28:11;;;;;;;45.22;41.22;;;5.90;53.30;;;;;;5093122;28;20622;-71
2022/03/04 10:30:42;;;;;;;44.90;40.67;;;5.90;53.30;;;;;;5092969;28;20289;-71
2022/03/04 10:33:10;;;;;;;45.53;41.40;;;6.00;52.90;;;;;;5092956;28;20225;-72
2022/03/04 10:35:38;;;;;;;42.70;39.00;;;6.10;52.80;;;;;;5093087;28;20194;-71
2022/03/04 10:38:05;;;;;;;45.92;41.50;;;6.10;52.50;;;;;;5092635;28;20240;-72
2022/03/04 10:40:36;;;;;;;45.67;41.35;;;6.10;52.90;;;;;;5092577;28;20254;-72
2022/03/04 10:43:05;;;;;;;44.33;40.38;;;6.20;52.50;;;;;;5092748;28;20220;-71
2022/03/04 10:45:34;;;;;;;46.65;42.13;;;6.10;52.70;;;;;;5092891;28;20201;-71
2022/03/04 10:48:04;;;;;;;44.70;40.88;;;6.10;51.80;;;;;;5092554;28;20201;-71
2022/03/04 10:50:34;;;;;;;47.03;42.95;;;6.20;52.10;;;;;;5092627;28;20698;-71
2022/03/04 10:53:03;;;;;;;46.22;41.97;;;6.40;51.80;;;;;;5092740;28;20235;-71
2022/03/04 10:55:39;;;;;;;46.05;41.63;;;6.40;51.20;;;;;;5092672;28;20194;-71
2022/03/04 10:58:08;;;;;;;45.50;41.08;;;6.40;51.50;;;;;;5092762;28;20203;-71
2022/03/04 11:00:37;;;;;;;43.72;39.80;;;6.60;50.90;;;;;;5092394;28;20213;-71
2022/03/04 11:03:06;;;;;;;44.67;40.58;;;6.50;50.60;;;;;;5092520;28;20213;-71
2022/03/04 11:05:34;;;;;;;45.97;41.88;;;6.50;50.60;;;;;;5093033;28;20252;-71
2022/03/04 11:08:01;;;;;;;43.08;39.25;;;6.50;50.60;;;;;;5092560;28;20198;-72
2022/03/04 11:10:28;;;;;;;44.38;40.72;;;6.80;50.00;;;;;;5092520;28;20520;-71
2022/03/04 11:12:56;;;;;;;44.10;40.13;;;6.70;49.40;;;;;;5092653;28;20224;-71
2022/03/04 11:15:25;;;;;;;46.50;42.50;;;6.80;49.50;;;;;;5092606;28;20281;-71
2022/03/04 11:17:53;;;;;;;45.95;41.85;;;6.90;49.30;;;;;;5092441;28;20206;-72
2022/03/04 11:20:21;;;;;;;44.80;40.70;;;7.00;48.70;;;;;;5092451;28;20203;-71
2022/03/04 11:22:51;;;;;;;43.78;39.67;;;6.90;48.50;;;;;;5092454;28;20217;-71
2022/03/04 11:25:19;;;;;;;44.92;40.53;;;7.00;48.10;;;;;;5092484;28;20264;-71
2022/03/04 11:27:47;;;;;;;43.22;39.38;;;7.10;48.00;;;;;;5092472;28;20206;-71
2022/03/04 11:30:41;;;;;;;42.65;38.65;;;7.10;48.00;;;;;;5092247;28;20194;-71
2022/03/04 11:33:20;;;;;;;45.15;41.00;;;7.30;47.70;;;;;;5092678;28;20310;-71
2022/03/04 11:36:03;;;;;;;42.40;38.60;;;7.40;47.60;;;;;;5092347;28;20209;-71
2022/03/04 11:38:59;;;;;;;42.58;38.38;;;7.50;47.20;;;;;;5092055;28;20198;-71
2022/03/04 11:41:31;;;;;;;43.67;39.67;;;7.40;47.40;;;;;;5090720;28;20584;-71
2022/03/04 11:44:00;;;;;;;42.63;38.83;;;7.40;47.60;;;;;;5092169;28;20281;-71
2022/03/04 11:46:30;;;;;;;42.25;38.45;;;7.60;47.20;;;;;;5092241;28;20199;-71
2022/03/04 11:49:26;;;;;;;44.05;40.20;;;7.80;46.80;;;;;;5092251;28;20571;-71
2022/03/04 11:52:19;;;;;;;42.38;38.53;;;7.80;45.30;;;;;;5092146;28;20218;-71
2022/03/04 11:55:07;;;;;;;42.72;38.83;;;7.70;45.60;;;;;;5092154;28;20720;-71
2022/03/04 11:57:37;;;;;;;43.25;39.38;;;7.80;45.50;;;;;;5092512;28;20667;-71
2022/03/04 12:00:24;;;;;;;40.40;36.83;;;7.80;45.50;;;;;;5095293;28;20295;-71
2022/03/04 12:02:54;;;;;;;43.78;39.78;;;7.80;45.40;;;;;;5096193;28;20283;-71
2022/03/04 12:05:28;;;;;;;41.30;37.70;;;7.90;45.10;;;;;;5095853;28;20238;-72
2022/03/04 12:08:09;;;;;;;40.17;36.55;;;8.00;44.70;;;;;;5095921;28;20199;-71
2022/03/04 12:10:45;;;;;;;40.85;37.25;;;8.10;44.30;;;;;;5095452;28;20562;-71
2022/03/04 12:13:18;;;;;;;40.55;37.15;;;8.00;43.80;;;;;;5095680;28;20313;-71
2022/03/04 12:15:50;;;;;;;42.33;38.42;;;8.10;44.10;;;;;;5095748;28;20203;-71
2022/03/04 12:18:25;;;;;;;39.50;35.97;;;8.00;43.90;;;;;;5095714;28;20206;-72
2022/03/04 12:21:01;;;;;;;39.13;35.78;;;8.00;43.50;;;;;;5095474;28;20682;-71
2022/03/04 12:23:36;;;;;;;37.88;34.78;;;8.20;42.90;;;;;;5095701;28;20708;-71
2022/03/04 12:26:11;;;;;;;40.25;36.45;;;8.30;43.20;;;;;;5095487;28;20690;-71
2022/03/04 12:28:43;;;;;;;38.78;35.28;;;8.40;43.30;;;;;;5095325;28;20651;-71
2022/03/04 12:31:25;;;;;;;39.65;36.05;;;8.50;42.70;;;;;;5095241;28;20241;-71
2022/03/04 12:33:56;;;;;;;41.33;37.83;;;8.60;42.50;;;;;;5095297;28;20582;-72
2022/03/04 12:36:25;;;;;;;40.63;37.17;;;8.70;42.70;;;;;;5095236;28;20213;-71
2022/03/04 12:38:55;;;;;;;40.80;37.35;;;8.80;42.80;;;;;;5094979;28;20206;-71